createdAt,value
2022-07-26T00:01:38.953Z,19.20
2022-07-26T00:04:06.254Z,19.20
2022-07-26T00:06:33.120Z,19.20
2022-07-26T00:08:59.928Z,19.10
2022-07-26T00:11:28.755Z,19.10
2022-07-26T00:13:55.499Z,19.00
2022-07-26T00:16:22.655Z,19.00
2022-07-26T00:18:49.555Z,19.00
2022-07-26T00:21:16.438Z,19.00
2022-07-26T00:23:43.387Z,19.00
2022-07-26T00:26:10.315Z,18.90
2022-07-26T00:28:37.544Z,18.80
2022-07-26T00:31:05.049Z,18.80
2022-07-26T00:33:31.963Z,18.80
2022-07-26T00:35:58.774Z,18.70
2022-07-26T00:38:25.739Z,18.70
2022-07-26T00:40:53.198Z,18.70
2022-07-26T00:43:20.109Z,18.60
2022-07-26T00:45:46.988Z,18.50
2022-07-26T00:48:13.903Z,18.50
2022-07-26T00:50:42.885Z,18.50
2022-07-26T00:53:09.723Z,18.40
2022-07-26T00:55:36.568Z,18.40
2022-07-26T00:58:03.533Z,18.40
2022-07-26T01:00:30.479Z,18.40
2022-07-26T01:03:00.403Z,18.30
2022-07-26T01:05:28.397Z,18.40
2022-07-26T01:07:56.275Z,18.30
2022-07-26T01:10:23.108Z,18.30
2022-07-26T01:12:49.918Z,18.20
2022-07-26T01:15:17.354Z,18.20
2022-07-26T01:17:44.750Z,18.20
2022-07-26T01:20:16.835Z,18.10
2022-07-26T01:22:43.630Z,18.10
2022-07-26T01:25:10.602Z,18.10
2022-07-26T01:27:40.431Z,18.10
2022-07-26T01:30:10.603Z,18.10
2022-07-26T01:32:38.034Z,18.10
2022-07-26T01:35:06.799Z,18.10
2022-07-26T01:37:33.697Z,18.00
2022-07-26T01:40:00.519Z,18.10
2022-07-26T01:42:27.312Z,18.10
2022-07-26T01:44:54.124Z,18.10
2022-07-26T01:47:20.874Z,18.10
2022-07-26T01:49:47.623Z,18.10
2022-07-26T01:52:14.804Z,18.10
2022-07-26T01:54:41.606Z,18.10
2022-07-26T01:57:08.754Z,18.10
2022-07-26T01:59:35.558Z,18.20
2022-07-26T02:02:02.474Z,18.10
2022-07-26T02:04:47.941Z,18.10
2022-07-26T02:07:14.777Z,18.10
2022-07-26T02:09:41.533Z,18.10
2022-07-26T02:12:08.792Z,18.10
2022-07-26T02:14:35.752Z,18.10
2022-07-26T02:17:02.747Z,18.10
2022-07-26T02:19:30.237Z,18.00
2022-07-26T02:21:57.558Z,18.00
2022-07-26T02:24:28.667Z,18.00
2022-07-26T02:26:56.601Z,18.00
2022-07-26T02:29:24.294Z,18.00
2022-07-26T02:31:51.859Z,18.10
2022-07-26T02:34:18.968Z,18.10
2022-07-26T02:36:46.181Z,18.00
2022-07-26T02:39:13.613Z,18.10
2022-07-26T02:41:40.740Z,18.00
2022-07-26T02:44:08.400Z,18.00
2022-07-26T02:46:35.828Z,18.00
2022-07-26T02:49:02.806Z,18.00
2022-07-26T02:51:29.710Z,18.00
2022-07-26T02:53:56.464Z,18.00
2022-07-26T02:56:23.366Z,18.00
2022-07-26T02:58:50.149Z,18.00
2022-07-26T03:01:17.110Z,17.90
2022-07-26T03:03:48.586Z,17.90
2022-07-26T03:06:17.699Z,17.90
2022-07-26T03:08:44.461Z,17.90
2022-07-26T03:11:12.253Z,17.90
2022-07-26T03:13:39.443Z,17.90
2022-07-26T03:16:08.135Z,17.90
2022-07-26T03:18:34.984Z,17.90
2022-07-26T03:21:02.308Z,17.90
2022-07-26T03:23:33.215Z,17.90
2022-07-26T03:26:01.622Z,17.90
2022-07-26T03:28:34.714Z,17.80
2022-07-26T03:31:02.289Z,17.80
2022-07-26T03:33:30.102Z,17.80
2022-07-26T03:35:57.085Z,17.80
2022-07-26T03:38:24.162Z,17.80
2022-07-26T03:40:51.076Z,17.80
2022-07-26T03:43:22.975Z,17.80
2022-07-26T03:45:50.657Z,17.80
2022-07-26T03:48:17.534Z,17.70
2022-07-26T03:50:44.372Z,17.70
2022-07-26T03:53:11.357Z,17.70
2022-07-26T03:55:56.590Z,17.70
2022-07-26T03:58:23.367Z,17.70
2022-07-26T04:00:50.237Z,17.60
2022-07-26T04:03:17.004Z,17.70
2022-07-26T04:05:49.105Z,17.60
2022-07-26T04:08:16.520Z,17.60
2022-07-26T04:10:53.294Z,17.50
2022-07-26T04:13:20.831Z,17.50
2022-07-26T04:15:47.836Z,17.40
2022-07-26T04:18:14.688Z,17.30
2022-07-26T04:20:42.221Z,17.30
2022-07-26T04:23:10.547Z,17.20
2022-07-26T04:25:41.351Z,17.10
2022-07-26T04:28:11.174Z,17.10
2022-07-26T04:30:39.054Z,16.90
2022-07-26T04:33:06.052Z,16.80
2022-07-26T04:35:33.736Z,16.80
2022-07-26T04:38:01.997Z,16.80
2022-07-26T04:40:33.368Z,16.80
2022-07-26T04:43:01.894Z,16.70
2022-07-26T04:45:29.637Z,16.70
2022-07-26T04:47:56.565Z,16.70
2022-07-26T04:50:24.721Z,16.70
2022-07-26T04:52:52.488Z,16.70
2022-07-26T04:55:19.839Z,16.70
2022-07-26T04:57:47.816Z,16.70
2022-07-26T05:00:21.857Z,16.70
2022-07-26T05:02:52.155Z,16.80
2022-07-26T05:05:19.159Z,16.70
2022-07-26T05:07:49.157Z,16.70
2022-07-26T05:10:17.562Z,16.70
2022-07-26T05:12:48.854Z,16.70
2022-07-26T05:15:15.887Z,16.70
2022-07-26T05:17:43.616Z,16.70
2022-07-26T05:20:13.748Z,16.70
2022-07-26T05:22:41.276Z,16.80
2022-07-26T05:25:09.938Z,16.80
2022-07-26T05:27:36.819Z,16.80
2022-07-26T05:30:04.177Z,16.80
2022-07-26T05:32:30.903Z,16.80
2022-07-26T05:34:57.730Z,16.80
2022-07-26T05:37:24.519Z,16.80
2022-07-26T05:39:51.333Z,16.80
2022-07-26T05:42:18.190Z,16.80
2022-07-26T05:44:45.027Z,16.80
2022-07-26T05:47:12.044Z,16.70
2022-07-26T05:49:40.198Z,16.90
2022-07-26T05:52:08.285Z,16.80
2022-07-26T05:54:35.397Z,16.80
2022-07-26T05:57:02.337Z,16.80
2022-07-26T05:59:29.262Z,16.90
2022-07-26T06:01:56.651Z,16.90
2022-07-26T06:04:25.059Z,16.90
2022-07-26T06:06:55.130Z,16.90
2022-07-26T06:09:24.716Z,16.90
2022-07-26T06:11:51.920Z,16.90
2022-07-26T06:14:19.772Z,17.00
2022-07-26T06:16:50.134Z,17.00
2022-07-26T06:19:17.584Z,17.00
2022-07-26T06:21:46.021Z,17.00
2022-07-26T06:24:13.414Z,17.00
2022-07-26T06:26:40.636Z,17.10
2022-07-26T06:29:07.682Z,17.10
2022-07-26T06:31:35.010Z,17.20
2022-07-26T06:34:02.084Z,17.30
2022-07-26T06:36:30.981Z,17.30
2022-07-26T06:38:58.261Z,17.30
2022-07-26T06:41:25.090Z,17.30
2022-07-26T06:43:52.114Z,17.30
2022-07-26T06:46:20.837Z,17.40
2022-07-26T06:48:52.721Z,17.40
2022-07-26T06:51:20.041Z,17.50
2022-07-26T06:53:46.854Z,17.50
2022-07-26T06:56:14.970Z,17.50
2022-07-26T06:58:42.550Z,17.50
2022-07-26T07:01:09.700Z,17.40
2022-07-26T07:03:36.679Z,17.40
2022-07-26T07:06:03.545Z,17.50
2022-07-26T07:08:30.429Z,17.50
2022-07-26T07:10:57.244Z,17.50
2022-07-26T07:13:25.229Z,17.50
2022-07-26T07:15:54.767Z,17.60
2022-07-26T07:18:21.571Z,17.60
2022-07-26T07:20:48.339Z,17.70
2022-07-26T07:23:15.273Z,17.80
2022-07-26T07:25:44.804Z,17.90
2022-07-26T07:28:12.155Z,17.90
2022-07-26T07:30:38.885Z,18.00
2022-07-26T07:33:09.357Z,18.00
2022-07-26T07:35:50.099Z,18.10
2022-07-26T07:38:16.950Z,18.10
2022-07-26T07:40:44.733Z,18.20
2022-07-26T07:43:11.685Z,18.40
2022-07-26T07:45:38.506Z,18.50
2022-07-26T07:48:05.596Z,18.50
2022-07-26T07:50:33.209Z,18.60
2022-07-26T07:53:02.152Z,18.70
2022-07-26T07:55:41.123Z,18.70
2022-07-26T07:58:10.630Z,18.70
2022-07-26T08:00:37.551Z,18.70
2022-07-26T08:03:04.383Z,18.60
2022-07-26T08:05:31.244Z,18.60
2022-07-26T08:07:58.071Z,18.70
2022-07-26T08:10:25.036Z,18.80
2022-07-26T08:12:51.974Z,18.90
2022-07-26T08:15:19.469Z,19.00
2022-07-26T08:17:54.045Z,19.20
2022-07-26T08:20:24.866Z,19.10
2022-07-26T08:22:52.404Z,19.10
2022-07-26T08:25:19.489Z,19.10
2022-07-26T08:28:02.584Z,19.10
2022-07-26T08:30:30.066Z,19.20
2022-07-26T08:32:56.806Z,19.20
2022-07-26T08:35:23.704Z,19.30
2022-07-26T08:37:50.627Z,19.40
2022-07-26T08:40:17.593Z,19.50
2022-07-26T08:42:52.672Z,19.60
2022-07-26T08:45:31.067Z,19.60
2022-07-26T08:50:46.357Z,19.80
2022-07-26T08:53:13.402Z,19.70
2022-07-26T08:58:27.346Z,19.50
2022-07-26T09:01:14.281Z,19.50
2022-07-26T09:03:42.630Z,19.40
2022-07-26T09:06:21.383Z,19.20
2022-07-26T09:08:51.137Z,19.10
2022-07-26T09:11:28.811Z,19.00
2022-07-26T09:14:04.182Z,18.90
2022-07-26T09:16:34.986Z,18.90
2022-07-26T09:19:19.572Z,18.90
2022-07-26T09:21:49.189Z,19.00
2022-07-26T09:24:35.006Z,19.20
2022-07-26T09:27:04.915Z,19.50
2022-07-26T09:29:52.002Z,19.80
2022-07-26T09:32:24.664Z,20.00
2022-07-26T09:34:58.823Z,20.00
2022-07-26T09:37:36.885Z,19.90
2022-07-26T09:40:07.924Z,19.80
2022-07-26T09:42:35.395Z,19.80
2022-07-26T09:45:02.426Z,19.70
2022-07-26T09:47:37.399Z,19.70
2022-07-26T09:50:11.874Z,19.80
2022-07-26T09:52:39.017Z,19.80
2022-07-26T09:55:07.988Z,19.90
2022-07-26T09:57:37.861Z,19.80
2022-07-26T10:00:08.751Z,19.90
2022-07-26T10:02:35.829Z,19.90
2022-07-26T10:05:02.779Z,19.90
2022-07-26T10:07:30.038Z,20.20
2022-07-26T10:10:04.913Z,20.30
2022-07-26T10:12:33.049Z,20.50
2022-07-26T10:14:59.921Z,20.60
2022-07-26T10:17:31.547Z,20.80
2022-07-26T10:20:17.354Z,20.90
2022-07-26T10:22:51.572Z,21.10
2022-07-26T10:25:18.371Z,21.30
2022-07-26T10:27:50.412Z,21.40
2022-07-26T10:30:20.958Z,21.30
2022-07-26T10:32:50.871Z,21.10
2022-07-26T10:35:31.951Z,21.00
2022-07-26T10:38:04.086Z,20.80
2022-07-26T10:40:31.239Z,20.70
2022-07-26T10:43:39.047Z,20.50
2022-07-26T10:46:16.448Z,20.30
2022-07-26T10:48:58.811Z,20.20
2022-07-26T10:51:35.075Z,19.90
2022-07-26T10:54:10.228Z,19.80
2022-07-26T10:56:37.781Z,19.70
2022-07-26T10:59:05.756Z,19.70
2022-07-26T11:01:41.203Z,20.00
2022-07-26T11:04:26.193Z,20.40
2022-07-26T11:06:53.210Z,20.40
2022-07-26T11:09:21.177Z,20.50
2022-07-26T11:11:48.708Z,20.50
2022-07-26T11:14:17.865Z,20.70
2022-07-26T11:16:50.036Z,21.00
2022-07-26T11:19:23.285Z,21.20
2022-07-26T11:22:01.587Z,21.50
2022-07-26T11:24:28.798Z,21.20
2022-07-26T11:26:56.357Z,21.10
2022-07-26T11:29:39.217Z,21.20
2022-07-26T11:32:18.538Z,21.20
2022-07-26T11:34:46.411Z,20.90
2022-07-26T11:37:13.733Z,20.60
2022-07-26T11:39:40.557Z,20.30
2022-07-26T11:42:10.286Z,20.10
2022-07-26T11:44:37.629Z,20.20
2022-07-26T11:47:12.861Z,20.30
2022-07-26T11:52:31.738Z,20.00
2022-07-26T11:54:59.430Z,20.00
2022-07-26T11:57:32.592Z,20.10
2022-07-26T12:00:00.622Z,19.90
2022-07-26T12:02:29.349Z,20.20
2022-07-26T12:05:34.997Z,20.40
2022-07-26T12:08:04.250Z,20.60
2022-07-26T12:10:31.472Z,20.80
2022-07-26T12:13:08.080Z,21.00
2022-07-26T12:16:04.281Z,21.40
2022-07-26T12:18:33.979Z,21.60
2022-07-26T12:21:07.956Z,21.60
2022-07-26T12:23:48.526Z,21.70
2022-07-26T12:26:23.118Z,22.00
2022-07-26T12:28:50.310Z,22.50
2022-07-26T12:31:29.028Z,22.60
2022-07-26T12:33:56.510Z,22.50
2022-07-26T12:36:27.658Z,22.50
2022-07-26T12:38:56.056Z,22.60
2022-07-26T12:41:38.059Z,22.70
2022-07-26T12:44:06.423Z,22.80
2022-07-26T12:46:34.811Z,22.70
2022-07-26T12:49:02.137Z,22.60
2022-07-26T12:51:29.159Z,22.60
2022-07-26T12:53:55.998Z,22.90
2022-07-26T12:56:22.754Z,23.20
2022-07-26T12:58:49.527Z,23.20
2022-07-26T13:01:16.456Z,23.50
2022-07-26T13:03:43.290Z,23.40
2022-07-26T13:06:10.238Z,23.10
2022-07-26T13:08:37.107Z,22.80
2022-07-26T13:11:03.915Z,22.50
2022-07-26T13:13:30.808Z,22.30
2022-07-26T13:15:57.756Z,22.00
2022-07-26T13:18:24.617Z,21.70
2022-07-26T13:20:51.401Z,21.50
2022-07-26T13:23:21.713Z,21.30
2022-07-26T13:25:49.789Z,21.30
2022-07-26T13:28:17.484Z,21.30
2022-07-26T13:30:45.194Z,21.60
2022-07-26T13:33:12.541Z,22.00
2022-07-26T13:35:41.285Z,22.20
2022-07-26T13:38:09.338Z,22.60
2022-07-26T13:40:36.351Z,22.80
2022-07-26T13:43:03.473Z,23.20
2022-07-26T13:45:30.327Z,23.50
2022-07-26T13:47:59.997Z,23.90
2022-07-26T13:50:28.149Z,23.90
2022-07-26T13:52:56.754Z,23.60
2022-07-26T13:55:24.512Z,23.30
2022-07-26T13:57:56.799Z,23.30
2022-07-26T14:00:28.696Z,23.20
2022-07-26T14:02:57.995Z,23.30
2022-07-26T14:05:25.898Z,23.20
2022-07-26T14:07:53.605Z,23.40
2022-07-26T14:10:21.560Z,23.30
2022-07-26T14:12:48.887Z,23.30
2022-07-26T14:15:21.654Z,23.10
2022-07-26T14:17:49.312Z,22.90
2022-07-26T14:20:18.861Z,22.70
2022-07-26T14:22:45.858Z,22.70
2022-07-26T14:25:15.441Z,22.80
2022-07-26T14:27:42.208Z,23.20
2022-07-26T14:30:09.425Z,23.50
2022-07-26T14:32:36.304Z,23.30
2022-07-26T14:35:03.729Z,23.10
2022-07-26T14:37:43.230Z,22.80
2022-07-26T14:40:17.603Z,22.60
2022-07-26T14:42:46.017Z,22.50
2022-07-26T14:45:13.574Z,22.60
2022-07-26T14:47:40.992Z,22.70
2022-07-26T14:50:09.602Z,22.70
2022-07-26T14:52:46.694Z,22.70
2022-07-26T14:55:14.733Z,22.50
2022-07-26T14:57:41.947Z,22.30
2022-07-26T15:00:12.773Z,22.20
2022-07-26T15:02:41.605Z,21.90
2022-07-26T15:05:09.614Z,21.90
2022-07-26T15:07:36.570Z,21.80
2022-07-26T15:10:05.408Z,21.80
2022-07-26T15:12:32.287Z,21.60
2022-07-26T15:14:59.143Z,21.30
2022-07-26T15:17:26.126Z,21.30
2022-07-26T15:19:52.963Z,21.40
2022-07-26T15:22:19.736Z,21.40
2022-07-26T15:24:46.514Z,21.20
2022-07-26T15:27:13.302Z,21.00
2022-07-26T15:29:40.222Z,20.90
2022-07-26T15:32:07.581Z,20.60
2022-07-26T15:34:34.668Z,20.50
2022-07-26T15:37:01.507Z,20.50
2022-07-26T15:39:28.540Z,20.60
2022-07-26T15:41:55.273Z,20.60
2022-07-26T15:44:22.951Z,20.70
2022-07-26T15:46:53.143Z,20.80
2022-07-26T15:49:20.551Z,20.80
2022-07-26T15:51:47.658Z,21.00
2022-07-26T15:54:16.045Z,21.40
2022-07-26T15:56:43.575Z,21.40
2022-07-26T15:59:10.541Z,21.40
2022-07-26T16:01:37.685Z,21.60
2022-07-26T16:04:05.773Z,21.50
2022-07-26T16:06:33.962Z,21.30
2022-07-26T16:09:19.040Z,21.20
2022-07-26T16:11:48.823Z,21.30
2022-07-26T16:14:16.778Z,21.10
2022-07-26T16:16:44.229Z,21.00
2022-07-26T16:19:11.931Z,20.90
2022-07-26T16:21:40.405Z,20.70
2022-07-26T16:24:07.989Z,20.70
2022-07-26T16:26:35.832Z,20.70
2022-07-26T16:29:03.370Z,20.70
2022-07-26T16:31:30.821Z,20.70
2022-07-26T16:33:57.665Z,20.60
2022-07-26T16:36:24.817Z,20.50
2022-07-26T16:38:51.809Z,20.50
2022-07-26T16:41:18.935Z,20.50
2022-07-26T16:43:45.970Z,20.50
2022-07-26T16:46:12.806Z,20.60
2022-07-26T16:48:39.789Z,20.60
2022-07-26T16:51:06.768Z,20.60
2022-07-26T16:53:33.852Z,20.60
2022-07-26T16:56:00.720Z,20.50
2022-07-26T16:58:27.507Z,20.40
2022-07-26T17:00:57.151Z,20.40
2022-07-26T17:03:24.055Z,20.20
2022-07-26T17:05:51.280Z,20.10
2022-07-26T17:08:18.366Z,19.90
2022-07-26T17:10:45.300Z,19.90
2022-07-26T17:13:12.435Z,19.80
2022-07-26T17:15:39.263Z,19.70
2022-07-26T17:18:06.097Z,19.80
2022-07-26T17:20:32.946Z,19.80
2022-07-26T17:22:59.886Z,19.90
2022-07-26T17:25:26.799Z,19.80
2022-07-26T17:27:53.686Z,19.70
2022-07-26T17:30:20.663Z,19.60
2022-07-26T17:32:47.505Z,19.60
2022-07-26T17:35:14.437Z,19.60
2022-07-26T17:37:41.359Z,19.60
2022-07-26T17:40:09.001Z,19.60
2022-07-26T17:42:37.066Z,19.50
2022-07-26T17:45:05.691Z,19.50
2022-07-26T17:47:32.485Z,19.40
2022-07-26T17:50:26.310Z,19.40
2022-07-26T17:52:48.200Z,19.40
2022-07-26T17:55:15.056Z,19.40
2022-07-26T17:57:42.382Z,19.40
2022-07-26T18:00:10.948Z,19.40
2022-07-26T18:02:37.755Z,19.40
2022-07-26T18:05:04.884Z,19.40
2022-07-26T18:07:31.725Z,19.40
2022-07-26T18:09:58.597Z,19.40
2022-07-26T18:12:25.442Z,19.40
2022-07-26T18:14:52.260Z,19.40
2022-07-26T18:17:19.083Z,19.50
2022-07-26T18:19:45.864Z,19.50
2022-07-26T18:22:12.783Z,19.50
2022-07-26T18:24:39.626Z,19.50
2022-07-26T18:27:06.621Z,19.50
2022-07-26T18:29:33.392Z,19.50
2022-07-26T18:32:02.076Z,19.40
2022-07-26T18:34:30.101Z,19.40
2022-07-26T18:36:57.134Z,19.40
2022-07-26T18:39:23.949Z,19.40
2022-07-26T18:41:50.701Z,19.40
2022-07-26T18:44:17.979Z,19.30
2022-07-26T18:46:44.853Z,19.20
2022-07-26T18:49:12.089Z,19.10
2022-07-26T18:51:42.977Z,19.00
2022-07-26T18:54:11.265Z,18.90
2022-07-26T18:56:38.118Z,18.90
2022-07-26T18:59:04.935Z,18.90
2022-07-26T19:01:31.835Z,18.90
2022-07-26T19:04:00.456Z,18.90
2022-07-26T19:06:30.208Z,18.80
2022-07-26T19:08:57.038Z,18.80
2022-07-26T19:11:26.750Z,18.80
2022-07-26T19:13:53.968Z,18.70
2022-07-26T19:16:20.795Z,18.70
2022-07-26T19:18:50.788Z,18.80
2022-07-26T19:21:19.679Z,18.80
2022-07-26T19:23:46.539Z,18.70
2022-07-26T19:26:13.364Z,18.70
2022-07-26T19:28:40.195Z,18.70
2022-07-26T19:31:07.046Z,18.70
2022-07-26T19:33:33.883Z,18.70
2022-07-26T19:36:00.618Z,18.70
2022-07-26T19:38:27.606Z,18.60
2022-07-26T19:40:55.273Z,18.60
2022-07-26T19:43:22.678Z,18.60
2022-07-26T19:45:49.540Z,18.60
2022-07-26T19:48:16.433Z,18.60
2022-07-26T19:50:43.323Z,18.60
2022-07-26T19:53:10.154Z,18.60
2022-07-26T19:55:38.378Z,18.60
2022-07-26T19:58:05.249Z,18.50
2022-07-26T20:00:32.046Z,18.50
2022-07-26T20:02:58.889Z,18.60
2022-07-26T20:05:25.747Z,18.50
2022-07-26T20:07:52.825Z,18.50
2022-07-26T20:10:19.716Z,18.50
2022-07-26T20:12:46.749Z,18.50
2022-07-26T20:15:14.401Z,18.40
2022-07-26T20:17:41.408Z,18.30
2022-07-26T20:20:09.682Z,18.30
2022-07-26T20:22:36.529Z,18.30
2022-07-26T20:25:03.618Z,18.20
2022-07-26T20:27:30.534Z,18.10
2022-07-26T20:30:00.847Z,18.10
2022-07-26T20:32:27.927Z,18.00
2022-07-26T20:34:54.720Z,18.00
2022-07-26T20:37:21.465Z,18.00
2022-07-26T20:39:48.293Z,18.00
2022-07-26T20:42:21.640Z,18.00
2022-07-26T20:44:48.991Z,18.00
2022-07-26T20:47:15.991Z,18.00
2022-07-26T20:49:42.741Z,18.00
2022-07-26T20:52:09.714Z,18.00
2022-07-26T20:54:36.750Z,17.90
2022-07-26T20:57:04.338Z,17.90
2022-07-26T20:59:32.450Z,17.90
2022-07-26T21:01:59.350Z,17.80
2022-07-26T21:04:26.276Z,17.80
2022-07-26T21:06:53.135Z,17.80
2022-07-26T21:09:19.904Z,17.70
2022-07-26T21:11:47.025Z,17.70
2022-07-26T21:14:13.841Z,17.60
2022-07-26T21:16:40.646Z,17.50
2022-07-26T21:19:07.596Z,17.50
2022-07-26T21:21:36.364Z,17.50
2022-07-26T21:24:03.209Z,17.40
2022-07-26T21:26:30.120Z,17.40
2022-07-26T21:28:56.979Z,17.40
2022-07-26T21:31:23.914Z,17.30
2022-07-26T21:33:50.736Z,17.20
2022-07-26T21:36:17.682Z,17.30
2022-07-26T21:38:44.535Z,17.20
2022-07-26T21:41:13.476Z,17.20
2022-07-26T21:43:40.601Z,17.10
2022-07-26T21:46:12.221Z,17.20
2022-07-26T21:48:40.034Z,17.10
2022-07-26T21:51:06.951Z,17.10
2022-07-26T21:53:33.706Z,17.00
2022-07-26T21:56:00.539Z,17.10
2022-07-26T21:58:28.095Z,17.00
2022-07-26T22:01:06.250Z,17.00
2022-07-26T22:03:36.481Z,17.00
2022-07-26T22:06:03.714Z,16.90
2022-07-26T22:08:31.790Z,16.90
2022-07-26T22:10:58.588Z,16.90
2022-07-26T22:13:25.374Z,16.80
2022-07-26T22:15:52.156Z,16.80
2022-07-26T22:18:22.048Z,16.80
2022-07-26T22:20:49.799Z,16.80
2022-07-26T22:23:18.685Z,16.70
2022-07-26T22:25:46.092Z,16.70
2022-07-26T22:28:18.440Z,16.70
2022-07-26T22:30:46.081Z,16.60
2022-07-26T22:33:13.105Z,16.50
2022-07-26T22:35:40.127Z,16.50
2022-07-26T22:38:09.551Z,16.50
2022-07-26T22:40:37.488Z,16.50
2022-07-26T22:43:04.843Z,16.50
2022-07-26T22:45:31.799Z,16.50
2022-07-26T22:47:59.064Z,16.40
2022-07-26T22:50:26.143Z,16.40
2022-07-26T22:52:52.941Z,16.40
2022-07-26T22:55:20.039Z,16.40
2022-07-26T22:57:47.408Z,16.40
2022-07-26T23:00:18.067Z,16.40
2022-07-26T23:02:45.360Z,16.40
2022-07-26T23:05:14.268Z,16.40
2022-07-26T23:07:41.648Z,16.40
2022-07-26T23:10:12.358Z,16.40
2022-07-26T23:12:39.314Z,16.30
2022-07-26T23:15:06.831Z,16.40
2022-07-26T23:17:36.750Z,16.30
2022-07-26T23:20:06.982Z,16.40
2022-07-26T23:22:34.208Z,16.30
2022-07-26T23:25:00.975Z,16.30
2022-07-26T23:27:27.803Z,16.30
2022-07-26T23:29:54.730Z,16.30
2022-07-26T23:32:21.470Z,16.20
2022-07-26T23:34:48.302Z,16.20
2022-07-26T23:37:15.190Z,16.20
2022-07-26T23:39:42.027Z,16.20
2022-07-26T23:42:08.879Z,16.10
2022-07-26T23:44:35.721Z,16.00
2022-07-26T23:47:02.604Z,16.00
2022-07-26T23:49:29.633Z,15.90
2022-07-26T23:51:56.542Z,15.80
2022-07-26T23:54:23.348Z,15.90
2022-07-26T23:56:50.216Z,15.80
2022-07-26T23:59:17.163Z,15.80
